Terminal Aerodrome Forecast
Issued by NWS

Home | Current Version | Previous Version | Text Only | Print | Product List | Glossary On
Versions: 1 2 3 4 5 6 7 8 9 10 11
494
FTUS43 KGRR 270530
TAFBTL
TAF
KBTL 270530Z 2706/2806 20010KT P6SM VCSH OVC025
     FM271200 19006KT 6SM -SHRA BR OVC025
     FM271700 24012G18KT P6SM VCSH OVC025
     FM271900 27018G24KT P6SM BKN050=

USA.gov is the U.S. government's official web portal to all federal, state and local government web resources and services.